createdAt,value
2018-11-07T00:01:50.709Z,99.90
2018-11-07T00:04:20.322Z,99.90
2018-11-07T00:06:50.005Z,99.90
2018-11-07T00:09:19.531Z,99.90
2018-11-07T00:11:49.234Z,99.90
2018-11-07T00:14:18.817Z,99.90
2018-11-07T00:16:48.453Z,99.90
2018-11-07T00:19:18.094Z,99.90
2018-11-07T00:21:47.781Z,99.90
2018-11-07T00:24:17.406Z,99.90
2018-11-07T00:26:47.097Z,99.90
2018-11-07T00:29:16.713Z,99.90
2018-11-07T00:31:46.419Z,99.90
2018-11-07T00:34:16.020Z,99.90
2018-11-07T00:36:45.738Z,99.90
2018-11-07T00:39:15.368Z,99.90
2018-11-07T00:41:45.212Z,99.90
2018-11-07T00:44:14.834Z,99.90
2018-11-07T00:46:44.551Z,99.90
2018-11-07T00:49:14.179Z,99.90
2018-11-07T00:51:43.879Z,99.90
2018-11-07T00:54:13.543Z,99.90
2018-11-07T00:56:43.201Z,99.90
2018-11-07T00:59:12.830Z,99.90
2018-11-07T01:01:42.531Z,99.90
2018-11-07T01:04:12.156Z,99.90
2018-11-07T01:06:41.831Z,99.90
2018-11-07T01:09:13.249Z,99.90
2018-11-07T01:11:43.669Z,99.90
2018-11-07T01:14:13.323Z,99.90
2018-11-07T01:16:43.092Z,99.90
2018-11-07T01:19:12.680Z,99.90
2018-11-07T01:21:42.323Z,99.90
2018-11-07T01:24:11.977Z,99.90
2018-11-07T01:26:41.642Z,99.90
2018-11-07T01:29:11.279Z,99.90
2018-11-07T01:31:41.148Z,99.90
2018-11-07T01:34:10.760Z,99.90
2018-11-07T01:36:40.389Z,99.90
2018-11-07T01:39:10.686Z,99.90
2018-11-07T01:41:40.698Z,99.90
2018-11-07T01:44:10.615Z,99.90
2018-11-07T01:46:40.260Z,99.90
2018-11-07T01:49:09.924Z,99.90
2018-11-07T01:51:39.617Z,99.90
2018-11-07T01:54:09.222Z,99.90
2018-11-07T01:56:38.858Z,99.90
2018-11-07T01:59:08.543Z,99.90
2018-11-07T02:01:38.224Z,99.90
2018-11-07T02:04:07.925Z,99.90
2018-11-07T02:06:37.637Z,99.90
2018-11-07T02:09:09.731Z,99.90
2018-11-07T02:11:39.400Z,99.90
2018-11-07T02:14:09.024Z,99.90
2018-11-07T02:16:38.726Z,99.90
2018-11-07T02:19:08.366Z,99.90
2018-11-07T02:21:38.034Z,99.90
2018-11-07T02:24:07.655Z,99.90
2018-11-07T02:26:37.337Z,99.90
2018-11-07T02:29:09.222Z,99.90
2018-11-07T02:31:38.802Z,99.90
2018-11-07T02:34:08.511Z,99.90
2018-11-07T02:36:38.095Z,99.90
2018-11-07T02:39:11.616Z,99.90
2018-11-07T02:41:41.789Z,99.90
2018-11-07T02:44:12.542Z,99.90
2018-11-07T02:46:42.874Z,99.90
2018-11-07T02:49:12.587Z,99.90
2018-11-07T02:51:42.218Z,99.90
2018-11-07T02:54:11.904Z,99.90
2018-11-07T02:56:41.520Z,99.90
2018-11-07T02:59:11.198Z,99.90
2018-11-07T03:01:40.799Z,99.90
2018-11-07T03:04:10.427Z,99.90
2018-11-07T03:06:40.044Z,99.90
2018-11-07T03:09:10.669Z,99.90
2018-11-07T03:11:40.305Z,99.90
2018-11-07T03:14:10.284Z,99.90
2018-11-07T03:16:39.888Z,99.90
2018-11-07T03:19:09.541Z,99.90
2018-11-07T03:21:39.204Z,99.90
2018-11-07T03:24:08.873Z,99.90
2018-11-07T03:26:38.546Z,99.90
2018-11-07T03:29:08.178Z,99.90
2018-11-07T03:31:37.786Z,99.90
2018-11-07T03:34:07.485Z,99.90
2018-11-07T03:36:37.097Z,99.90
2018-11-07T03:39:10.720Z,99.90
2018-11-07T03:41:40.373Z,99.90
2018-11-07T03:44:10.689Z,99.90
2018-11-07T03:46:40.320Z,99.90
2018-11-07T03:49:10.087Z,99.90
2018-11-07T03:51:39.793Z,99.90
2018-11-07T03:54:09.496Z,99.90
2018-11-07T03:56:39.111Z,99.90
2018-11-07T03:59:08.863Z,99.90
2018-11-07T04:01:38.498Z,99.90
2018-11-07T04:07:07.418Z,99.90
2018-11-07T04:09:37.077Z,99.90
2018-11-07T04:12:06.719Z,99.90
2018-11-07T04:14:36.408Z,99.90
2018-11-07T04:17:06.030Z,99.90
2018-11-07T04:19:35.713Z,99.90
2018-11-07T04:22:05.306Z,99.90
2018-11-07T04:24:34.928Z,99.90
2018-11-07T04:27:04.546Z,99.90
2018-11-07T04:29:34.237Z,99.90
2018-11-07T04:32:03.842Z,99.90
2018-11-07T04:34:33.450Z,99.90
2018-11-07T04:37:03.023Z,99.90
2018-11-07T04:39:32.651Z,99.90
2018-11-07T04:42:02.215Z,99.90
2018-11-07T04:44:31.780Z,99.90
2018-11-07T04:47:01.584Z,99.90
2018-11-07T04:49:31.192Z,99.90
2018-11-07T04:52:00.759Z,99.90
2018-11-07T04:54:30.391Z,99.90
2018-11-07T04:57:00.008Z,99.90
2018-11-07T04:59:29.939Z,99.90
2018-11-07T05:01:59.613Z,99.90
2018-11-07T05:04:29.270Z,99.90
2018-11-07T05:06:58.875Z,99.90
2018-11-07T05:09:28.578Z,99.90
2018-11-07T05:11:58.257Z,99.90
2018-11-07T05:14:27.858Z,99.90
2018-11-07T05:16:57.432Z,99.90
2018-11-07T05:19:27.144Z,99.90
2018-11-07T05:21:56.736Z,99.90
2018-11-07T05:24:26.424Z,99.90
2018-11-07T05:26:55.984Z,99.90
2018-11-07T05:29:25.658Z,99.90
2018-11-07T05:31:55.296Z,99.90
2018-11-07T05:34:24.939Z,99.90
2018-11-07T05:36:54.524Z,99.90
2018-11-07T05:39:24.151Z,99.90
2018-11-07T05:41:53.733Z,99.90
2018-11-07T05:44:23.416Z,99.90
2018-11-07T05:46:52.986Z,99.90
2018-11-07T05:49:22.584Z,99.90
2018-11-07T05:51:52.177Z,99.90
2018-11-07T05:54:21.821Z,99.90
2018-11-07T05:56:51.450Z,99.90
2018-11-07T05:59:21.123Z,99.90
2018-11-07T06:01:50.739Z,99.90
2018-11-07T06:04:20.445Z,99.90
2018-11-07T06:06:50.049Z,99.90
2018-11-07T06:09:19.638Z,99.90
2018-11-07T06:11:49.221Z,99.90
2018-11-07T06:14:18.839Z,99.90
2018-11-07T06:16:48.427Z,99.90
2018-11-07T06:19:18.001Z,99.90
2018-11-07T06:21:47.648Z,99.90
2018-11-07T06:24:17.361Z,99.90
2018-11-07T06:26:46.970Z,99.90
2018-11-07T06:29:16.579Z,99.90
2018-11-07T06:31:46.303Z,99.90
2018-11-07T06:34:15.997Z,99.90
2018-11-07T06:36:45.613Z,99.90
2018-11-07T06:39:15.257Z,99.90
2018-11-07T06:41:44.879Z,99.90
2018-11-07T06:44:14.579Z,99.90
2018-11-07T06:46:44.188Z,99.90
2018-11-07T06:49:14.009Z,99.90
2018-11-07T06:51:43.622Z,99.90
2018-11-07T06:54:13.336Z,99.90
2018-11-07T06:56:42.963Z,99.90
2018-11-07T06:59:12.633Z,99.90
2018-11-07T07:01:42.300Z,99.90
2018-11-07T07:04:12.066Z,99.90
2018-11-07T07:06:41.704Z,99.90
2018-11-07T07:09:11.746Z,99.90
2018-11-07T07:11:41.598Z,99.90
2018-11-07T07:14:11.296Z,99.90
2018-11-07T07:16:40.926Z,99.90
2018-11-07T07:19:10.599Z,99.90
2018-11-07T07:21:40.235Z,99.90
2018-11-07T07:24:09.955Z,99.90
2018-11-07T07:26:39.590Z,99.90
2018-11-07T07:29:10.001Z,99.90
2018-11-07T07:31:39.602Z,99.90
2018-11-07T07:34:09.349Z,99.90
2018-11-07T07:36:38.979Z,99.90
2018-11-07T07:39:10.275Z,99.90
2018-11-07T07:41:39.939Z,99.90
2018-11-07T07:44:09.719Z,99.90
2018-11-07T07:46:39.302Z,99.90
2018-11-07T07:49:08.988Z,99.90
2018-11-07T07:51:38.715Z,99.90
2018-11-07T07:54:08.500Z,99.90
2018-11-07T07:56:38.106Z,99.90
2018-11-07T07:59:07.855Z,99.90
2018-11-07T08:04:34.565Z,99.90
2018-11-07T08:07:04.430Z,99.90
2018-11-07T08:09:33.994Z,99.90
2018-11-07T08:12:03.733Z,99.90
2018-11-07T08:14:33.395Z,99.90
2018-11-07T08:17:03.125Z,99.90
2018-11-07T08:19:32.741Z,99.90
2018-11-07T08:22:02.350Z,99.90
2018-11-07T08:24:31.983Z,99.90
2018-11-07T08:27:01.633Z,99.90
2018-11-07T08:29:31.253Z,99.90
2018-11-07T08:32:00.961Z,99.90
2018-11-07T08:34:30.562Z,99.90
2018-11-07T08:37:00.191Z,99.90
2018-11-07T08:39:29.763Z,99.90
2018-11-07T08:41:59.388Z,99.90
2018-11-07T08:44:28.973Z,99.90
2018-11-07T08:46:58.610Z,99.90
2018-11-07T08:49:28.231Z,99.90
2018-11-07T08:51:57.990Z,99.90
2018-11-07T08:54:27.596Z,99.90
2018-11-07T08:56:57.672Z,99.90
2018-11-07T08:59:27.281Z,99.90
2018-11-07T09:01:56.977Z,99.90
2018-11-07T09:04:26.627Z,99.90
2018-11-07T09:06:56.295Z,99.90
2018-11-07T09:09:25.900Z,99.90
2018-11-07T09:11:55.651Z,99.90
2018-11-07T09:14:25.245Z,99.90
2018-11-07T09:16:54.886Z,99.90
2018-11-07T09:19:24.463Z,99.90
2018-11-07T09:21:54.112Z,99.90
2018-11-07T09:24:23.724Z,99.90
2018-11-07T09:26:53.425Z,99.90
2018-11-07T09:29:23.116Z,99.90
2018-11-07T09:31:52.950Z,99.90
2018-11-07T09:34:22.542Z,99.90
2018-11-07T09:36:52.176Z,99.90
2018-11-07T09:39:21.773Z,99.90
2018-11-07T09:41:51.502Z,99.90
2018-11-07T09:44:21.098Z,99.90
2018-11-07T09:46:50.821Z,99.90
2018-11-07T09:49:20.448Z,99.90
2018-11-07T09:51:50.172Z,99.90
2018-11-07T09:54:19.870Z,99.90
2018-11-07T09:56:49.455Z,99.90
2018-11-07T09:59:19.119Z,99.90
2018-11-07T10:01:48.902Z,99.90
2018-11-07T10:04:18.413Z,99.90
2018-11-07T10:06:48.071Z,99.90
2018-11-07T10:09:17.690Z,99.90
2018-11-07T10:11:47.378Z,99.90
2018-11-07T10:14:16.972Z,99.90
2018-11-07T10:16:46.636Z,99.90
2018-11-07T10:19:16.240Z,99.90
2018-11-07T10:21:45.945Z,99.90
2018-11-07T10:24:15.609Z,99.90
2018-11-07T10:26:45.358Z,99.90
2018-11-07T10:29:15.058Z,99.90
2018-11-07T10:31:44.692Z,99.90
2018-11-07T10:34:14.357Z,99.90
2018-11-07T10:36:44.720Z,99.90
2018-11-07T10:39:14.429Z,99.90
2018-11-07T10:41:44.131Z,99.90
2018-11-07T10:44:13.770Z,99.90
2018-11-07T10:46:43.437Z,99.90
2018-11-07T10:49:13.109Z,99.90
2018-11-07T10:51:42.799Z,99.90
2018-11-07T10:54:12.429Z,99.90
2018-11-07T10:56:42.100Z,99.90
2018-11-07T10:59:11.768Z,99.90
2018-11-07T11:01:46.817Z,99.90
2018-11-07T11:04:16.443Z,99.90
2018-11-07T11:06:46.158Z,99.90
2018-11-07T11:09:15.827Z,99.90
2018-11-07T11:11:45.724Z,99.90
2018-11-07T11:14:15.373Z,99.90
2018-11-07T11:16:45.416Z,99.90
2018-11-07T11:19:15.126Z,99.90
2018-11-07T11:21:44.798Z,99.90
2018-11-07T11:24:14.420Z,99.90
2018-11-07T11:26:44.148Z,99.90
2018-11-07T11:29:13.801Z,99.90
2018-11-07T11:31:43.482Z,99.90
2018-11-07T11:34:13.328Z,99.90
2018-11-07T11:36:43.059Z,99.90
2018-11-07T11:39:13.367Z,99.90
2018-11-07T11:41:43.677Z,99.90
2018-11-07T11:44:13.317Z,99.90
2018-11-07T11:46:43.072Z,99.90
2018-11-07T11:49:12.715Z,99.90
2018-11-07T11:51:42.384Z,99.90
2018-11-07T11:54:12.136Z,99.90
2018-11-07T11:56:41.889Z,99.90
2018-11-07T11:59:11.791Z,99.90
2018-11-07T12:01:41.554Z,99.90
2018-11-07T12:04:11.211Z,99.90
2018-11-07T12:06:40.944Z,99.90
2018-11-07T12:09:11.105Z,99.90
2018-11-07T12:11:40.781Z,99.90
2018-11-07T12:14:10.420Z,99.90
2018-11-07T12:16:40.159Z,99.90
2018-11-07T12:19:09.792Z,99.90
2018-11-07T12:21:39.488Z,99.90
2018-11-07T12:24:09.125Z,99.90
2018-11-07T12:26:38.876Z,99.90
2018-11-07T12:29:08.382Z,99.90
2018-11-07T12:31:38.120Z,99.90
2018-11-07T12:34:07.714Z,99.90
2018-11-07T12:36:37.463Z,99.90
2018-11-07T12:39:09.640Z,99.90
2018-11-07T12:41:39.257Z,99.90
2018-11-07T12:44:08.831Z,99.90
2018-11-07T12:46:38.492Z,99.90
2018-11-07T12:52:05.395Z,99.90
2018-11-07T12:54:35.058Z,99.90
2018-11-07T12:57:04.769Z,99.60
2018-11-07T12:59:34.522Z,99.90
2018-11-07T13:02:04.204Z,99.80
2018-11-07T13:04:34.029Z,99.80
2018-11-07T13:07:03.622Z,99.90
2018-11-07T13:09:33.351Z,99.90
2018-11-07T13:12:02.971Z,99.90
2018-11-07T13:14:32.632Z,99.90
2018-11-07T13:17:02.220Z,99.90
2018-11-07T13:19:31.839Z,99.70
2018-11-07T13:22:01.442Z,99.60
2018-11-07T13:24:31.070Z,99.60
2018-11-07T13:27:00.696Z,98.80
2018-11-07T13:29:30.413Z,99.20
2018-11-07T13:32:00.057Z,99.60
2018-11-07T13:34:29.738Z,99.40
2018-11-07T13:36:59.505Z,99.90
2018-11-07T13:39:29.060Z,99.90
2018-11-07T13:41:58.732Z,99.20
2018-11-07T13:44:28.454Z,99.10
2018-11-07T13:46:58.066Z,99.50
2018-11-07T13:49:27.778Z,99.70
2018-11-07T13:51:57.415Z,99.40
2018-11-07T13:54:27.120Z,99.20
2018-11-07T13:56:56.763Z,99.20
2018-11-07T13:59:26.530Z,99.30
2018-11-07T14:01:56.106Z,99.60
2018-11-07T14:04:25.851Z,99.90
2018-11-07T14:06:55.479Z,99.90
2018-11-07T14:09:25.203Z,99.90
2018-11-07T14:11:54.873Z,99.90
2018-11-07T14:14:24.666Z,99.90
2018-11-07T14:16:54.378Z,99.90
2018-11-07T14:19:24.099Z,99.90
2018-11-07T14:21:53.860Z,99.90
2018-11-07T14:24:23.516Z,99.90
2018-11-07T14:26:53.186Z,99.90
2018-11-07T14:29:22.822Z,99.90
2018-11-07T14:31:52.568Z,99.90
2018-11-07T14:34:22.277Z,99.90
2018-11-07T14:36:51.910Z,99.90
2018-11-07T14:39:21.630Z,99.90
2018-11-07T14:41:51.229Z,99.90
2018-11-07T14:44:20.841Z,99.90
2018-11-07T14:46:50.439Z,99.90
2018-11-07T14:49:20.137Z,99.90
2018-11-07T14:51:49.744Z,99.90
2018-11-07T14:54:19.410Z,99.90
2018-11-07T14:56:48.978Z,99.90
2018-11-07T14:59:18.586Z,99.90
2018-11-07T15:01:48.174Z,99.90
2018-11-07T15:04:17.817Z,99.90
2018-11-07T15:06:47.398Z,99.90
2018-11-07T15:09:17.055Z,99.90
2018-11-07T15:11:46.649Z,99.90
2018-11-07T15:14:16.344Z,99.90
2018-11-07T15:16:45.925Z,99.90
2018-11-07T15:19:16.401Z,99.90
2018-11-07T15:21:45.990Z,99.90
2018-11-07T15:24:15.695Z,99.90
2018-11-07T15:26:45.396Z,99.90
2018-11-07T15:29:15.020Z,99.90
2018-11-07T15:31:44.630Z,99.90
2018-11-07T15:34:14.681Z,99.90
2018-11-07T15:36:44.285Z,99.90
2018-11-07T15:39:14.011Z,99.90
2018-11-07T15:41:43.983Z,99.90
2018-11-07T15:44:13.698Z,99.90
2018-11-07T15:46:43.321Z,99.90
2018-11-07T15:49:12.989Z,99.90
2018-11-07T15:51:42.686Z,99.90
2018-11-07T15:54:12.352Z,99.90
2018-11-07T15:56:42.004Z,99.90
2018-11-07T15:59:11.628Z,99.90
2018-11-07T16:01:41.225Z,99.90
2018-11-07T16:04:10.878Z,99.90
2018-11-07T16:06:40.487Z,99.90
2018-11-07T16:09:11.093Z,99.90
2018-11-07T16:11:40.684Z,99.90
2018-11-07T16:14:10.301Z,99.90
2018-11-07T16:16:39.900Z,99.90
2018-11-07T16:19:09.514Z,99.90
2018-11-07T16:21:39.123Z,99.90
2018-11-07T16:24:08.791Z,99.90
2018-11-07T16:26:38.369Z,99.90
2018-11-07T16:29:08.031Z,99.90
2018-11-07T16:31:37.624Z,99.90
2018-11-07T16:34:07.263Z,99.90
2018-11-07T16:36:36.885Z,99.90
2018-11-07T16:39:09.968Z,99.90
2018-11-07T16:41:39.665Z,99.90
2018-11-07T16:44:09.191Z,99.90
2018-11-07T16:46:38.778Z,99.90
2018-11-07T16:49:08.387Z,99.90
2018-11-07T16:51:37.956Z,99.90
2018-11-07T16:54:10.292Z,99.90
2018-11-07T16:56:39.865Z,99.90
2018-11-07T16:59:09.540Z,99.90
2018-11-07T17:01:39.076Z,99.90
2018-11-07T17:04:08.707Z,99.90
2018-11-07T17:06:38.359Z,99.90
2018-11-07T17:09:09.433Z,99.90
2018-11-07T17:11:39.343Z,99.90
2018-11-07T17:14:09.267Z,99.90
2018-11-07T17:16:38.956Z,99.90
2018-11-07T17:19:08.559Z,99.90
2018-11-07T17:21:38.186Z,99.90
2018-11-07T17:27:05.402Z,99.90
2018-11-07T17:29:35.097Z,99.90
2018-11-07T17:32:04.874Z,99.90
2018-11-07T17:34:34.541Z,99.90
2018-11-07T17:37:04.246Z,99.90
2018-11-07T17:39:33.956Z,99.90
2018-11-07T17:42:03.587Z,99.90
2018-11-07T17:44:33.294Z,99.90
2018-11-07T17:47:02.945Z,99.90
2018-11-07T17:49:32.723Z,99.90
2018-11-07T17:52:02.412Z,99.90
2018-11-07T17:54:32.133Z,99.90
2018-11-07T17:57:01.736Z,99.90
2018-11-07T17:59:31.400Z,99.90
2018-11-07T18:02:01.034Z,99.90
2018-11-07T18:04:30.900Z,99.90
2018-11-07T18:07:00.505Z,99.90
2018-11-07T18:09:30.369Z,99.90
2018-11-07T18:11:59.989Z,99.90
2018-11-07T18:14:29.682Z,99.90
2018-11-07T18:16:59.315Z,99.90
2018-11-07T18:19:28.982Z,99.90
2018-11-07T18:21:58.659Z,99.90
2018-11-07T18:24:28.405Z,99.90
2018-11-07T18:26:58.046Z,99.90
2018-11-07T18:29:27.620Z,99.90
2018-11-07T18:31:57.396Z,99.90
2018-11-07T18:34:27.016Z,99.90
2018-11-07T18:36:57.338Z,99.90
2018-11-07T18:39:26.965Z,99.90
2018-11-07T18:41:56.558Z,99.90
2018-11-07T18:44:26.280Z,99.90
2018-11-07T18:46:55.894Z,99.90
2018-11-07T18:49:25.681Z,99.90
2018-11-07T18:51:55.417Z,99.90
2018-11-07T18:54:25.093Z,99.90
2018-11-07T18:56:54.710Z,99.90
2018-11-07T18:59:24.444Z,99.90
2018-11-07T19:01:54.084Z,99.90
2018-11-07T19:04:23.737Z,99.90
2018-11-07T19:06:53.399Z,99.90
2018-11-07T19:09:23.050Z,99.90
2018-11-07T19:11:52.675Z,99.90
2018-11-07T19:14:22.390Z,99.90
2018-11-07T19:16:52.095Z,99.90
2018-11-07T19:19:21.669Z,99.90
2018-11-07T19:21:51.282Z,99.90
2018-11-07T19:24:20.891Z,99.90
2018-11-07T19:26:50.755Z,99.90
2018-11-07T19:29:20.316Z,99.90
2018-11-07T19:31:49.945Z,99.90
2018-11-07T19:34:19.671Z,99.90
2018-11-07T19:36:49.342Z,99.90
2018-11-07T19:39:19.082Z,99.90
2018-11-07T19:41:48.949Z,99.90
2018-11-07T19:44:18.645Z,99.90
2018-11-07T19:46:48.304Z,99.90
2018-11-07T19:49:18.020Z,99.90
2018-11-07T19:51:47.658Z,99.90
2018-11-07T19:54:17.324Z,99.90
2018-11-07T19:56:46.977Z,99.90
2018-11-07T19:59:16.586Z,99.90
2018-11-07T20:01:46.314Z,99.90
2018-11-07T20:04:15.911Z,99.90
2018-11-07T20:06:45.631Z,99.90
2018-11-07T20:09:15.268Z,99.90
2018-11-07T20:11:44.999Z,99.90
2018-11-07T20:14:14.666Z,99.90
2018-11-07T20:16:44.319Z,99.90
2018-11-07T20:19:14.199Z,99.90
2018-11-07T20:21:43.968Z,99.90
2018-11-07T20:24:13.602Z,99.90
2018-11-07T20:26:43.597Z,99.90
2018-11-07T20:29:13.255Z,99.90
2018-11-07T20:31:42.835Z,99.90
2018-11-07T20:34:12.464Z,99.90
2018-11-07T20:36:42.096Z,99.90
2018-11-07T20:39:12.878Z,99.90
2018-11-07T20:41:42.937Z,99.90
2018-11-07T20:44:12.638Z,99.90
2018-11-07T20:46:42.215Z,99.90
2018-11-07T20:49:11.809Z,99.90
2018-11-07T20:51:41.400Z,99.90
2018-11-07T20:54:11.031Z,99.90
2018-11-07T20:56:40.602Z,99.90
2018-11-07T20:59:10.280Z,99.90
2018-11-07T21:01:39.886Z,99.90
2018-11-07T21:04:09.572Z,99.90
2018-11-07T21:06:39.154Z,99.90
2018-11-07T21:09:11.241Z,99.90
2018-11-07T21:11:41.154Z,99.90
2018-11-07T21:14:10.800Z,99.90
2018-11-07T21:16:40.453Z,99.90
2018-11-07T21:19:10.079Z,99.90
2018-11-07T21:21:39.705Z,99.90
2018-11-07T21:24:09.516Z,99.90
2018-11-07T21:34:33.567Z,99.90
2018-11-07T21:37:02.780Z,99.90
2018-11-07T21:39:31.990Z,99.90
2018-11-07T21:42:01.222Z,99.90
2018-11-07T21:44:30.422Z,99.90
2018-11-07T21:46:59.613Z,99.90
2018-11-07T21:49:28.822Z,99.90
2018-11-07T21:51:58.038Z,99.90
2018-11-07T21:54:27.232Z,99.90
2018-11-07T21:56:56.426Z,99.90
2018-11-07T21:59:25.653Z,99.90
2018-11-07T22:01:54.845Z,99.90
2018-11-07T22:04:24.041Z,99.90
2018-11-07T22:06:53.253Z,99.90
2018-11-07T22:09:22.463Z,99.90
2018-11-07T22:11:51.661Z,99.90
2018-11-07T22:14:20.845Z,99.90
2018-11-07T22:16:50.070Z,99.90
2018-11-07T22:19:19.261Z,99.90
2018-11-07T22:21:48.469Z,99.90
2018-11-07T22:24:17.716Z,99.90
2018-11-07T22:26:46.869Z,99.90
2018-11-07T22:29:16.041Z,99.90
2018-11-07T22:31:45.315Z,99.90
2018-11-07T22:34:14.406Z,99.90
2018-11-07T22:36:43.574Z,99.90
2018-11-07T22:39:14.145Z,99.90
2018-11-07T22:41:44.179Z,99.90
2018-11-07T22:44:13.349Z,99.90
2018-11-07T22:46:42.571Z,99.90
2018-11-07T22:49:11.750Z,99.90
2018-11-07T22:51:40.921Z,99.90
2018-11-07T22:54:10.091Z,99.90
2018-11-07T22:56:39.267Z,99.90
2018-11-07T22:59:08.438Z,99.90
2018-11-07T23:01:39.494Z,99.90
2018-11-07T23:04:08.995Z,99.90
2018-11-07T23:06:39.126Z,99.90
2018-11-07T23:09:11.694Z,99.90
2018-11-07T23:11:41.922Z,99.90
2018-11-07T23:14:12.558Z,99.90
2018-11-07T23:16:42.570Z,99.90
2018-11-07T23:19:12.543Z,99.90
2018-11-07T23:21:41.769Z,99.90
2018-11-07T23:24:10.907Z,99.90
2018-11-07T23:26:40.106Z,99.90
2018-11-07T23:29:09.311Z,99.90
2018-11-07T23:31:38.510Z,99.90
2018-11-07T23:34:07.719Z,99.90
2018-11-07T23:36:36.915Z,99.90
2018-11-07T23:39:09.136Z,99.90
2018-11-07T23:41:38.337Z,99.90
2018-11-07T23:44:07.537Z,99.90
2018-11-07T23:46:36.730Z,99.90
2018-11-07T23:49:06.049Z,99.90
2018-11-07T23:51:35.249Z,99.90
2018-11-07T23:54:04.454Z,99.90
2018-11-07T23:56:33.645Z,99.90
2018-11-07T23:59:02.841Z,99.90
